Maratonul Nisipului ~ 2017

26 March 2017 Constanta, Statiunea Mamaia, Romania

Cursa Semimaraton

Cronometrare BibChip Romania
Tip Cursa amatori
C S G Athlete Bib Categorie Timp
1 1 1 Maxim Raileanu 695 M20-29 01:10:50
2 2 2 Catalin Atanasoaei 719 M20-29 01:11:58
1 3 3 Nicolae Bălan 723 M30-39 01:15:37
2 4 4 Cristian Bornaz 518 M30-39 01:21:53
1 5 5 George Bulgaru 555 M19 01:23:14
1 6 6 Vasile Apetroaie 599 M50-59 01:24:51
3 7 7 Cristian Pop 725 M20-29 01:27:11
4 8 8 Nicusor Antonesi 775 M20-29 01:30:08
1 9 9 Claudiu Dinescu 554 M40-49 01:30:41
2 10 10 Alexandru Danilov 704 M40-49 01:32:38
3 11 11 Virgil Alecu 651 M40-49 01:32:42
2 12 12 Culai Voicu 508 M50-59 01:32:43
3 13 13 Paulian Prăjitură 740 M30-39 01:33:04
4 14 14 Catalin Butnariu 711 M40-49 01:33:20
5 15 15 Narcis Mihai 569 M20-29 01:34:52
1 1 16 Maria Magdalena Veliscu 507 F30-39 01:36:06
3 16 17 Alexandru Pop 548 M50-59 01:36:28
5 17 18 Radu Surugiu 696 M40-49 01:36:31
4 18 19 Ionut Petcu 501 M30-39 01:36:46
6 19 20 Radu Marga 627 M40-49 01:37:03
5 20 21 Laurentiu Cobzaru 641 M30-39 01:37:21
6 21 22 Ovidiu Veliscu 506 M30-39 01:37:21
7 22 23 Sorin Sirbu 630 M30-39 01:38:19
8 23 24 Alexandru Florin Ionita 574 M30-39 01:38:45
9 24 25 Alexandru Irimiea 701 M30-39 01:39:05
6 25 26 Andrei Catoiu 510 M20-29 01:39:24
7 26 27 Daniel Arpinte 690 M40-49 01:39:31
8 27 28 Andrei Moldoveanu 575 M40-49 01:39:43
10 28 29 Ion Catana 565 M30-39 01:39:44
1 2 30 Antonia Maris 579 F20-29 01:39:45
7 29 31 Danut Stefan Stanciu 768 M20-29 01:40:27
11 30 32 Ionut-Sorin Gherghe 654 M30-39 01:40:29
12 31 33 Ciprian Menaef 632 M30-39 01:40:55
8 32 34 Florin Nicolae 584 M20-29 01:41:55
2 3 35 Ilinca Maria Tempeanu 645 F20-29 01:43:14
13 33 36 Daniel Vişinoaia 677 M30-39 01:43:31
14 34 37 Nichita-Ionut Fedul 559 M30-39 01:43:32
15 35 38 Cosmin Rugina 578 M30-39 01:44:06
9 36 39 Andrei Stanciu 739 M20-29 01:44:09
16 37 40 Ovidiu Grosu 683 M30-39 01:44:09
17 38 41 Alexandru Chesler 629 M30-39 01:44:39
4 39 42 Grigore Bobis 523 M50-59 01:44:55
1 40 43 Ion Stati 748 M60+ 01:45:10
10 41 44 Alexandru Florin Oprescu 726 M20-29 01:46:49
18 42 45 Marian Tălpigă 668 M30-39 01:47:00
11 43 46 George Lipieanu 689 M20-29 01:47:01
9 44 47 Constantin Macovei 743 M40-49 01:47:03
10 45 48 Gelu Pazu 625 M40-49 01:48:00
19 46 49 Daniel Nica 765 M30-39 01:48:16
20 47 50 Augustin Stefu 720 M30-39 01:48:18
21 48 51 Alin Vasilescu 616 M30-39 01:48:53
22 49 52 Cristian Hîrnea 732 M30-39 01:48:55
12 50 53 Alexandru Marian Boboc 676 M20-29 01:49:05
2 4 54 Adriana Mihaela Bodilcu 702 F30-39 01:49:05
3 5 55 Diana Vlad 750 F30-39 01:49:13
23 51 56 Corneliu-Paul Florea 597 M30-39 01:49:23
11 52 57 Vali Munteanu 663 M40-49 01:49:56
24 53 58 Adrian Nicolae 673 M30-39 01:50:33
13 54 59 Alexandru George Virlan 592 M20-29 01:50:37
25 55 60 Paul Gheorghita 603 M30-39 01:50:38
26 56 61 George Balasa 586 M30-39 01:51:12
12 57 62 Mihai Varlan 511 M40-49 01:51:57
14 58 63 Damiano Slanzi 593 M20-29 01:52:08
27 59 64 Iulian Hansa 617 M30-39 01:52:10
28 60 65 Stefan Lastun 623 M30-39 01:52:11
29 61 66 Gabriel Butaru 685 M30-39 01:52:12
30 62 67 Ion Ilie 519 M30-39 01:52:29
31 63 68 Marius Florin Savu 536 M30-39 01:52:47
3 6 69 Andreea Badea 731 F20-29 01:52:49
32 64 70 Ciprian Soare 598 M30-39 01:52:56
33 65 71 Esin Abdula 757 M30-39 01:52:59
13 66 72 Marin Bumbaru 758 M40-49 01:53:00
34 67 73 Chase Anderson 631 M30-39 01:53:35
2 68 74 Victor Grosaru 708 M19 01:54:09
14 69 75 Bogdan Bulacu 520 M40-49 01:54:15
15 70 76 Ion Cohal 762 M40-49 01:54:23
16 71 77 Cristian Vasile Bica 767 M40-49 01:54:46
35 72 78 Nicolae Miron 539 M30-39 01:54:49
36 73 79 Serghei Caimacan 535 M30-39 01:55:11
15 74 80 Andrei Tcaci 749 M20-29 01:55:16
17 75 81 Laurentiu Toader 587 M40-49 01:55:23
37 76 82 Marcel Bogatie 648 M30-39 01:55:24
16 77 83 Andrei Draica 534 M20-29 01:55:27
4 7 84 Alina Diana Pop 724 F30-39 01:55:28
18 78 85 Cristian Petre 560 M40-49 01:55:38
5 8 86 Ana Elisabeta Daraban 693 F30-39 01:55:39
38 79 87 Mihai Tonea 595 M30-39 01:55:39
2 80 88 Petru Andrei Condurache 779 M60+ 01:55:44
17 81 89 Ovidiu Șerban 557 M20-29 01:56:20
18 82 90 Flavius Ghilea 713 M20-29 01:56:29
19 83 91 Bogdan Voicu 633 M40-49 01:56:34
6 9 92 Olga Tanas 671 F30-39 01:56:39
7 10 93 Corina Mitrica 718 F30-39 01:56:59
39 84 94 Valeriu Arnautu 573 M30-39 01:57:01
4 11 95 Valentina Feodorov 774 F20-29 01:57:06
3 85 96 Ioan Fulica 564 M60+ 01:57:13
19 86 97 Alexei Revenco 657 M20-29 01:57:15
20 87 98 Bogdan Chifor 669 M40-49 01:57:23
20 88 99 Mihai Alexandru Stanciu 752 M20-29 01:57:24
40 89 100 Adrian Tiron 745 M30-39 01:57:25
41 90 101 Marinel Stanila 637 M30-39 01:57:26
8 12 102 Andreea Petcu 715 F30-39 01:57:28
42 91 103 Marian-Cristian Arabolu 505 M30-39 01:57:33
21 92 104 Ioan Chirvasitu 728 M40-49 01:58:31
1 13 105 Anda Vieru 503 F40-49 01:58:58
43 93 106 Robert Szolosi 703 M30-39 01:59:04
21 94 107 Ionut-Costin Neagu 737 M20-29 01:59:12
44 95 108 Dumitru Tiganescu 771 M30-39 01:59:21
22 96 109 Laszlo Zalan Hideg 691 M20-29 01:59:52
45 97 110 Aurelian Cristea 699 M30-39 02:00:08
46 98 111 Razvan Gilmeanu 742 M30-39 02:00:16
22 99 112 Tudor Constantinescu 643 M40-49 02:00:27
9 14 113 Alina Capat 680 F30-39 02:00:43
47 100 114 Lucian Stoian 610 M30-39 02:00:46
48 101 115 Constantin Dorin Melcea 769 M30-39 02:01:30
49 102 116 Mihai Maros 770 M30-39 02:01:31
23 103 117 Daniyar Memedemin 588 M40-49 02:01:32
5 15 118 Cornelia Untea 661 F20-29 02:01:39
23 104 119 Cosmin Pop 751 M20-29 02:01:40
24 105 120 Alexandru Matache 712 M20-29 02:01:48
24 106 121 Radu Grigore 522 M40-49 02:01:55
5 107 122 Dragos Ranca 741 M50-59 02:02:22
25 108 123 Ion Cristinel Balan 526 M40-49 02:02:30
26 109 124 Florea Naidin 547 M40-49 02:02:36
50 110 125 Tanase Tasente 678 M30-39 02:02:37
27 111 126 Nicolae Covaliu 744 M40-49 02:03:00
25 112 127 Ionut Militarescu 709 M20-29 02:03:43
28 113 128 Viorel Stan 615 M40-49 02:04:04
29 114 129 Razvan Daha 766 M40-49 02:04:06
51 115 130 Bogdan Alamita 735 M30-39 02:04:28
52 116 131 Alexandru Ovidiu Zanfir 755 M30-39 02:04:29
2 16 132 Otilia Pacea 727 F40-49 02:04:53
26 117 133 Gheorghe Capatina 606 M20-29 02:04:53
6 17 134 Andra Dan 582 F20-29 02:05:26
30 118 135 Vlad Andrei Ionescu 514 M40-49 02:05:34
1 18 136 Ana-Maria Nichifor 622 F19 02:05:49
31 119 137 Catalin Adrian Tantareanu 561 M40-49 02:05:54
7 19 138 Ioana Paun 543 F20-29 02:06:01
3 20 139 Elena Popescu 618 F40-49 02:06:04
4 21 140 Carmina Capitanu 666 F40-49 02:06:19
8 22 141 Daniela Zamfir 659 F20-29 02:06:25
32 120 142 Mihai Gariel Tirziu 660 M40-49 02:06:54
53 121 143 Radu Giurca 714 M30-39 02:06:56
33 122 144 Florin Baroana 563 M40-49 02:07:13
54 123 145 Ionut Simionescu 764 M30-39 02:07:13
34 124 146 Manis Nezir 585 M40-49 02:07:26
4 125 147 Alexandru Naita 528 M60+ 02:07:43
35 126 148 Dan Suhani 612 M40-49 02:07:44
36 127 149 Cristian Chioseaua 502 M40-49 02:07:48
55 128 150 Radu Niculita 681 M30-39 02:07:56
27 129 151 Mihail Tomescu 707 M20-29 02:08:15
56 130 152 Catalin Negoescu 524 M30-39 02:08:36
57 131 153 Alexandru Cosmin Ciobanu 646 M30-39 02:08:38
58 132 154 Bogdan Blasciuc 686 M30-39 02:08:50
37 133 155 Demostene-Dorinel Gheorghe 650 M40-49 02:09:19
59 134 156 Razvan Muntean 602 M30-39 02:09:20
9 23 157 Georgiana-Steluta Neculai 540 F20-29 02:09:41
60 135 158 Razvan-Antonio Miron 710 M30-39 02:09:41
5 24 159 Guzel Mirasova 756 F40-49 02:09:42
38 136 160 Iulian Dideanu 692 M40-49 02:10:26
61 137 161 Dragos Marasescu 542 M30-39 02:11:32
6 25 162 Loredana Udrea 697 F40-49 02:11:47
6 138 163 Maricel Bocanet 600 M50-59 02:12:01
5 139 164 Constantin Apostu 684 M60+ 02:12:05
62 140 165 Adrian Apostol 609 M30-39 02:12:24
6 141 166 Andrei Andries 777 M60+ 02:12:28
63 142 167 Bogdan Zurbagiu 687 M30-39 02:12:34
64 143 168 Stefan Tudor 667 M30-39 02:12:34
7 26 169 Corina Jantzer-Toader 538 F40-49 02:12:49
39 144 170 Gheorghe Iuroaea 556 M40-49 02:12:53
65 145 171 Iulian Alexandrov 649 M30-39 02:13:18
66 146 172 Sunai Ablachim 761 M30-39 02:13:39
67 147 173 Lucian Nistor 644 M30-39 02:13:51
10 27 174 Gulbin Amet 655 F20-29 02:15:36
40 148 175 Lucian Iulian Stefan 717 M40-49 02:15:38
10 28 176 Catiusa Raicu 504 F30-39 02:15:38
11 29 177 Anamaria Strezoiu 652 F30-39 02:16:46
41 149 178 Marius Stanescu 722 M40-49 02:17:07
68 150 179 Marian-George Ciucă 532 M30-39 02:17:15
12 30 180 Lavinia Rusali 529 F30-39 02:17:29
69 151 181 Laurentiu Ghelbeaza 634 M30-39 02:17:29
8 31 182 Florina Mihai 698 F40-49 02:17:57
70 152 183 Calin Bordei 530 M30-39 02:18:04
28 153 184 Sorin Popa 773 M20-29 02:19:11
11 32 185 Amanda van Duynhoven 642 F20-29 02:19:13
7 154 186 Petre Zeveleanu 546 M60+ 02:19:22
12 33 187 Ana-Maria Ilie 549 F20-29 02:19:46
9 34 188 Lavinia Iancu 665 F40-49 02:20:42
29 155 189 Ciprian Comisan 664 M20-29 02:20:43
71 156 190 Sergiu Nastasi 516 M30-39 02:20:48
13 35 191 Ioana Sandescu 639 F20-29 02:20:51
14 36 192 Adriana Antone 636 F20-29 02:20:56
42 157 193 Ioan Festeu 763 M40-49 02:20:57
30 158 194 Vlad Bauer 640 M20-29 02:20:58
7 159 195 Serban Mihai 658 M50-59 02:21:03
13 37 196 Andreea Morosan 515 F30-39 02:21:35
14 38 197 Irina Ciacaru 545 F30-39 02:21:35
10 39 198 Gabriela Delia Botezatu 537 F40-49 02:21:48
31 160 199 Gabriel Atanasiu 607 M20-29 02:21:56
15 40 200 Ana-Maria Apostol 608 F30-39 02:22:24
72 161 201 Catalin Balasa 746 M30-39 02:22:54
16 41 202 Irina Curt 682 F30-39 02:23:02
73 162 203 Adrian Rachitan-Dobritoiu 638 M30-39 02:23:20
15 42 204 Selen Murad 509 F20-29 02:23:35
74 163 205 Samir Șeicamet 591 M30-39 02:23:39
8 164 206 Nelu Popa 672 M60+ 02:24:13
75 165 207 Marin Codita 517 M30-39 02:24:14
43 166 208 Valentin Barbu 675 M40-49 02:24:21
44 167 209 Mihail Preda 571 M40-49 02:24:37
11 43 210 Marinela Suhani 611 F40-49 02:24:38
76 168 211 Bogdan Laptaretu 624 M30-39 02:24:38
32 169 212 Alexandru Suciu 533 M20-29 02:25:14
77 170 213 Catalin Prodan 577 M30-39 02:25:14
45 171 214 Laurentiu Stoica 604 M40-49 02:25:23
16 44 215 Valentina Tase 619 F20-29 02:25:49
17 45 216 Oana Rotaru 620 F20-29 02:25:50
8 172 217 Tunceai Gelil 572 M50-59 02:26:12
78 173 218 Alexandru-Catalin Raicu 679 M30-39 02:26:53
17 46 219 Georgiana Nicoleta Rusu 613 F30-39 02:27:11
12 47 220 Livia Stoia 733 F40-49 02:27:37
18 48 221 Andreia Mistreanu 635 F30-39 02:27:39
19 49 222 Alexandra Cazacu 721 F30-39 02:28:43
79 174 223 Aidar Murat 734 M30-39 02:30:46
46 175 224 Calin Anghel 544 M40-49 02:30:59
20 50 225 Cristiana Radulescu 531 F30-39 02:31:40
18 51 226 Mariana Petra 626 F20-29 02:31:40
47 176 227 Sunay Uteu 576 M40-49 02:32:09
80 177 228 Mihai Dinca 594 M30-39 02:32:13
81 178 229 Traian Zburlea 760 M30-39 02:32:29
48 179 230 Alexandru Savastre 759 M40-49 02:33:30
13 52 231 Mihaela Huzum 566 F40-49 02:33:51
33 180 232 Adrian Mateianu 736 M20-29 02:34:42
19 53 233 Anca Huzum 583 F20-29 02:37:46
82 181 234 Viorel Adam 570 M30-39 02:38:06
34 182 235 Dorin Chivulet 596 M20-29 02:38:16
14 54 236 Irina Cristina Virtopeanu 653 F40-49 02:38:21
83 183 237 Florin Scarlat 772 M30-39 02:38:26
21 55 238 Raluca Hirjau 776 F30-39 02:39:24
84 184 239 Angelin Stanciu 621 M30-39 02:40:28
15 56 240 Mihaela Grigore 567 F40-49 02:41:18
49 185 241 Catalin Maftei 730 M40-49 02:45:50
9 186 242 Ionel Aleonte 729 M60+ 02:48:34
85 187 243 Cristian Claudiu Popescu 753 M30-39 02:49:13
9 188 244 Alexandru Nestian 521 M50-59 02:49:39
22 57 245 Andreea-Loredana Tudorache 550 F30-39 02:50:26
16 58 246 Alexandra Simion 552 F40-49 02:50:27
10 189 247 Aidun Curt-Mola 601 M50-59 02:53:20
35 190 248 Mirel-Robert Nicola 688 M20-29 02:55:33
1 59 249 Elena Juganaru 527 F50-59 03:00:01
23 60 250 Adriana Miulescu 670 F30-39 03:08:57
10 191 251 Mihai Bita 754 M60+ 03:30:52
24 61 252 Veronica Tirlea 512 F30-39 04:01:06
-- -- -- Alexandru Minza 747 M30-39 DNF